createdAt,value
2023-05-17T00:02:59.201Z,97218.19
2023-05-17T00:07:01.447Z,97214.34
2023-05-17T00:11:03.761Z,97216.72
2023-05-17T00:15:07.394Z,97216.09
2023-05-17T00:19:09.850Z,97224.91
2023-05-17T00:23:12.131Z,97225.81
2023-05-17T00:27:14.428Z,97219.56
2023-05-17T00:31:17.819Z,97223.50
2023-05-17T00:35:20.092Z,97230.63
2023-05-17T00:39:22.462Z,97228.13
2023-05-17T00:43:26.224Z,97233.00
2023-05-17T00:47:28.556Z,97223.88
2023-05-17T00:51:31.743Z,97233.94
2023-05-17T00:55:34.531Z,97232.56
2023-05-17T00:59:37.674Z,97231.47
2023-05-17T01:03:43.983Z,97240.59
2023-05-17T01:07:53.145Z,97233.53
2023-05-17T01:12:12.129Z,97241.59
2023-05-17T01:16:19.396Z,97230.91
2023-05-17T01:20:27.014Z,97242.19
2023-05-17T01:24:39.007Z,97243.25
2023-05-17T01:28:44.141Z,97229.53
2023-05-17T01:32:46.643Z,97230.69
2023-05-17T01:36:49.567Z,97237.91
2023-05-17T01:41:36.597Z,97233.69
2023-05-17T01:45:47.307Z,97235.16
2023-05-17T01:49:54.584Z,97245.59
2023-05-17T01:54:01.833Z,97237.72
2023-05-17T01:58:08.219Z,97237.53
2023-05-17T02:02:10.765Z,97246.41
2023-05-17T02:06:13.120Z,97250.44
2023-05-17T02:10:20.753Z,97249.00
2023-05-17T02:14:24.756Z,97252.63
2023-05-17T02:18:28.123Z,97256.88
2023-05-17T02:22:30.483Z,97261.97
2023-05-17T02:26:33.468Z,97258.97
2023-05-17T02:30:35.648Z,97260.88
2023-05-17T02:34:37.780Z,97258.97
2023-05-17T02:38:41.020Z,97263.81
2023-05-17T02:42:43.342Z,97278.13
2023-05-17T02:46:46.054Z,97276.25
2023-05-17T02:50:48.370Z,97287.25
2023-05-17T02:54:51.805Z,97296.03
2023-05-17T02:58:57.721Z,97279.34
2023-05-17T03:03:00.073Z,97289.44
2023-05-17T03:07:02.593Z,97284.88
2023-05-17T03:11:06.030Z,97283.47
2023-05-17T03:15:09.399Z,97284.56
2023-05-17T03:19:12.349Z,97287.25
2023-05-17T03:23:16.897Z,97295.03
2023-05-17T03:27:27.374Z,97300.09
2023-05-17T03:31:29.807Z,97300.69
2023-05-17T03:35:32.234Z,97308.59
2023-05-17T03:39:34.442Z,97318.78
2023-05-17T03:43:36.632Z,97325.69
2023-05-17T03:47:39.147Z,97325.88
2023-05-17T03:51:41.772Z,97331.81
2023-05-17T03:55:43.961Z,97338.91
2023-05-17T03:59:46.831Z,97340.25
2023-05-17T04:03:50.359Z,97351.63
2023-05-17T04:07:54.040Z,97345.41
2023-05-17T04:11:56.670Z,97354.44
2023-05-17T04:15:58.798Z,97356.88
2023-05-17T04:20:01.300Z,97365.38
2023-05-17T04:24:03.777Z,97364.97
2023-05-17T04:28:06.082Z,97375.03
2023-05-17T04:32:09.346Z,97383.97
2023-05-17T04:36:12.269Z,97384.44
2023-05-17T04:40:15.772Z,97389.47
2023-05-17T04:44:18.855Z,97393.59
2023-05-17T04:48:21.415Z,97399.97
2023-05-17T04:52:23.759Z,97403.31
2023-05-17T04:56:27.661Z,97400.56
2023-05-17T05:00:31.221Z,97408.16
2023-05-17T05:04:38.513Z,97420.84
2023-05-17T05:08:41.240Z,97414.34
2023-05-17T05:12:46.412Z,97424.84
2023-05-17T05:16:50.545Z,97429.59
2023-05-17T05:20:52.776Z,97433.44
2023-05-17T05:24:56.003Z,97451.56
2023-05-17T05:28:58.724Z,97450.47
2023-05-17T05:33:02.194Z,97450.78
2023-05-17T05:37:05.101Z,97468.25
2023-05-17T05:41:08.269Z,97467.47
2023-05-17T05:45:12.538Z,97479.44
2023-05-17T05:49:16.088Z,97499.97
2023-05-17T05:53:19.916Z,97496.03
2023-05-17T05:57:30.351Z,97488.84
2023-05-17T06:01:32.623Z,97482.56
2023-05-17T06:05:34.775Z,97481.59
2023-05-17T06:09:36.917Z,97497.06
2023-05-17T06:13:39.043Z,97496.91
2023-05-17T06:17:41.236Z,97494.25
2023-05-17T06:21:44.055Z,97509.97
2023-05-17T06:25:46.635Z,97496.09
2023-05-17T06:29:48.829Z,97493.66
2023-05-17T06:33:51.069Z,97492.88
2023-05-17T06:37:53.252Z,97486.41
2023-05-17T06:41:55.488Z,97497.47
2023-05-17T06:45:57.783Z,97500.88
2023-05-17T06:50:00.071Z,97513.31
2023-05-17T06:54:02.429Z,97517.88
2023-05-17T06:58:04.682Z,97511.63
2023-05-17T07:02:06.918Z,97518.31
2023-05-17T07:06:09.056Z,97528.31
2023-05-17T07:10:11.693Z,97528.81
2023-05-17T07:14:14.146Z,97522.81
2023-05-17T07:18:16.672Z,97533.38
2023-05-17T07:22:19.012Z,97523.78
2023-05-17T07:26:21.735Z,97538.34
2023-05-17T07:30:23.842Z,97550.63
2023-05-17T07:34:26.189Z,97541.63
2023-05-17T07:38:28.372Z,97549.84
2023-05-17T07:42:30.464Z,97552.84
2023-05-17T07:46:32.542Z,97548.50
2023-05-17T07:50:34.685Z,97565.00
2023-05-17T07:54:39.460Z,97559.59
2023-05-17T07:58:41.552Z,97564.91
2023-05-17T08:02:43.738Z,97576.59
2023-05-17T08:06:47.266Z,97589.59
2023-05-17T08:10:49.847Z,97594.28
2023-05-17T08:14:51.930Z,97592.59
2023-05-17T08:18:54.254Z,97592.91
2023-05-17T08:22:56.469Z,97594.56
2023-05-17T08:26:58.639Z,97597.63
2023-05-17T08:31:00.738Z,97598.03
2023-05-17T08:35:04.217Z,97601.75
2023-05-17T08:39:08.364Z,97617.22
2023-05-17T08:43:12.559Z,97618.84
2023-05-17T08:47:26.169Z,97620.16
2023-05-17T08:51:29.039Z,97620.28
2023-05-17T08:55:33.263Z,97622.25
2023-05-17T08:59:35.557Z,97629.94
2023-05-17T09:03:41.269Z,97622.63
2023-05-17T09:07:43.762Z,97634.88
2023-05-17T09:11:46.137Z,97642.41
2023-05-17T09:15:49.607Z,97635.63
2023-05-17T09:19:52.169Z,97650.06
2023-05-17T09:24:05.563Z,97656.00
2023-05-17T09:28:09.678Z,97669.16
2023-05-17T09:32:20.793Z,97676.94
2023-05-17T09:36:24.038Z,97678.31
2023-05-17T09:40:26.471Z,97688.75
2023-05-17T09:44:28.866Z,97692.63
2023-05-17T09:48:31.039Z,97701.97
2023-05-17T09:52:35.756Z,97711.41
2023-05-17T09:56:38.418Z,97712.72
2023-05-17T10:00:43.886Z,97725.81
2023-05-17T10:04:49.492Z,97709.41
2023-05-17T10:08:55.228Z,97714.00
2023-05-17T10:12:59.245Z,97721.66
2023-05-17T10:17:03.298Z,97724.53
2023-05-17T10:21:07.898Z,97731.81
2023-05-17T10:25:10.480Z,97740.22
2023-05-17T10:29:13.423Z,97743.50
2023-05-17T10:33:17.905Z,97734.88
2023-05-17T10:37:21.838Z,97734.28
2023-05-17T10:41:29.050Z,97732.69
2023-05-17T10:45:31.990Z,97730.06
2023-05-17T10:49:37.080Z,97737.84
2023-05-17T10:54:18.578Z,97738.16
2023-05-17T10:58:21.522Z,97743.97
2023-05-17T11:02:24.636Z,97759.47
2023-05-17T11:06:27.033Z,97750.50
2023-05-17T11:10:29.352Z,97768.50
2023-05-17T11:14:52.205Z,97767.03
2023-05-17T11:18:56.112Z,97771.13
2023-05-17T11:23:05.053Z,97754.63
2023-05-17T11:27:07.557Z,97772.34
2023-05-17T11:31:10.418Z,97770.84
2023-05-17T11:35:13.032Z,97776.28
2023-05-17T11:39:17.290Z,97769.81
2023-05-17T11:43:20.343Z,97772.16
2023-05-17T11:47:22.832Z,97774.09
2023-05-17T11:51:25.945Z,97773.44
2023-05-17T11:55:28.259Z,97783.16
2023-05-17T11:59:38.162Z,97781.59
2023-05-17T12:03:40.251Z,97780.53
2023-05-17T12:07:42.481Z,97789.84
2023-05-17T12:11:45.144Z,97777.75
2023-05-17T12:16:17.593Z,97787.63
2023-05-17T12:20:20.353Z,97813.09
2023-05-17T12:24:22.542Z,97810.94
2023-05-17T12:28:24.690Z,97821.31
2023-05-17T12:32:27.232Z,97816.78
2023-05-17T12:36:31.756Z,97821.13
2023-05-17T12:40:33.978Z,97819.00
2023-05-17T12:44:36.061Z,97833.53
2023-05-17T12:48:39.659Z,97845.47
2023-05-17T12:52:41.729Z,97854.03
2023-05-17T12:56:45.030Z,97845.69
2023-05-17T13:00:57.953Z,97853.81
2023-05-17T13:05:13.318Z,97855.38
2023-05-17T13:09:18.829Z,97858.19
2023-05-17T13:13:21.288Z,97844.19
2023-05-17T13:17:34.744Z,97847.75
2023-05-17T13:21:36.805Z,97864.78
2023-05-17T13:25:38.907Z,97874.66
2023-05-17T13:29:42.805Z,97878.47
2023-05-17T13:33:45.408Z,97874.91
2023-05-17T13:37:47.637Z,97867.66
2023-05-17T13:41:50.099Z,97870.31
2023-05-17T13:45:56.829Z,97857.81
2023-05-17T13:50:00.573Z,97872.56
2023-05-17T13:54:04.979Z,97866.66
2023-05-17T13:58:07.633Z,97869.63
2023-05-17T14:02:10.407Z,97880.44
2023-05-17T14:06:12.684Z,97879.38
2023-05-17T14:10:15.279Z,97886.69
2023-05-17T14:14:17.332Z,97905.28
2023-05-17T14:18:19.542Z,97881.97
2023-05-17T14:22:21.723Z,97882.22
2023-05-17T14:26:23.779Z,97899.66
2023-05-17T14:30:26.019Z,97896.81
2023-05-17T14:34:28.212Z,97905.16
2023-05-17T14:38:30.636Z,97895.44
2023-05-17T14:42:32.916Z,97905.34
2023-05-17T14:46:35.051Z,97920.47
2023-05-17T14:50:37.231Z,97912.59
2023-05-17T14:54:41.836Z,97919.78
2023-05-17T14:58:43.981Z,97923.88
2023-05-17T15:02:46.146Z,97931.63
2023-05-17T15:06:48.541Z,97920.88
2023-05-17T15:10:51.598Z,97923.88
2023-05-17T15:14:53.939Z,97931.50
2023-05-17T15:18:57.742Z,97948.81
2023-05-17T15:23:00.021Z,97955.28
2023-05-17T15:27:02.085Z,97958.41
2023-05-17T15:31:11.028Z,97962.13
2023-05-17T15:35:13.342Z,97979.56
2023-05-17T15:39:15.622Z,97973.63
2023-05-17T15:43:17.668Z,97976.91
2023-05-17T15:47:20.519Z,97973.38
2023-05-17T15:51:23.979Z,97979.63
2023-05-17T15:55:26.048Z,97990.19
2023-05-17T15:59:28.190Z,97986.88
2023-05-17T16:03:30.618Z,97990.38
2023-05-17T16:07:32.725Z,97998.53
2023-05-17T16:11:34.817Z,98012.84
2023-05-17T16:15:36.988Z,98018.63
2023-05-17T16:19:39.122Z,98018.31
2023-05-17T16:23:41.612Z,98024.03
2023-05-17T16:27:43.677Z,98020.09
2023-05-17T16:31:48.068Z,98036.25
2023-05-17T16:35:50.366Z,98037.84
2023-05-17T16:39:52.546Z,98044.47
2023-05-17T16:43:54.608Z,98041.31
2023-05-17T16:47:56.731Z,98043.34
2023-05-17T16:51:58.802Z,98045.63
2023-05-17T16:56:00.867Z,98042.13
2023-05-17T17:00:04.053Z,98044.34
2023-05-17T17:04:07.158Z,98040.84
2023-05-17T17:08:09.218Z,98044.03
2023-05-17T17:12:23.650Z,98039.69
2023-05-17T17:16:26.831Z,98042.66
2023-05-17T17:20:29.208Z,98056.34
2023-05-17T17:24:33.159Z,98056.50
2023-05-17T17:28:35.455Z,98062.66
2023-05-17T17:32:37.593Z,98076.44
2023-05-17T17:36:39.941Z,98072.97
2023-05-17T17:40:42.032Z,98068.03
2023-05-17T17:44:44.137Z,98067.00
2023-05-17T17:48:46.196Z,98076.31
2023-05-17T17:52:50.603Z,98076.81
2023-05-17T17:56:53.018Z,98086.81
2023-05-17T18:00:55.206Z,98092.13
2023-05-17T18:04:57.539Z,98103.00
2023-05-17T18:08:59.717Z,98101.97
2023-05-17T18:13:01.993Z,98115.47
2023-05-17T18:17:04.346Z,98114.00
2023-05-17T18:21:08.272Z,98111.97
2023-05-17T18:25:10.856Z,98123.72
2023-05-17T18:29:13.298Z,98119.59
2023-05-17T18:33:15.649Z,98123.94
2023-05-17T18:37:18.056Z,98122.75
2023-05-17T18:41:21.006Z,98133.78
2023-05-17T18:45:23.254Z,98145.25
2023-05-17T18:49:26.549Z,98149.41
2023-05-17T18:53:29.345Z,98154.34
2023-05-17T18:57:31.506Z,98159.16
2023-05-17T19:01:33.963Z,98159.03
2023-05-17T19:05:38.367Z,98164.09
2023-05-17T19:09:42.543Z,98173.94
2023-05-17T19:13:44.908Z,98187.34
2023-05-17T19:17:49.342Z,98190.69
2023-05-17T19:21:52.146Z,98184.16
2023-05-17T19:25:55.610Z,98192.50
2023-05-17T19:29:58.581Z,98191.91
2023-05-17T19:34:02.436Z,98190.59
2023-05-17T19:38:06.214Z,98186.94
2023-05-17T19:42:12.286Z,98200.81
2023-05-17T19:46:18.779Z,98197.84
2023-05-17T19:50:25.222Z,98201.22
2023-05-17T19:54:32.935Z,98201.59
2023-05-17T19:58:39.788Z,98200.75
2023-05-17T20:02:42.265Z,98212.91
2023-05-17T20:06:44.584Z,98221.84
2023-05-17T20:10:47.001Z,98212.72
2023-05-17T20:14:49.375Z,98225.41
2023-05-17T20:18:51.960Z,98228.50
2023-05-17T20:22:54.292Z,98223.34
2023-05-17T20:26:59.821Z,98228.81
2023-05-17T20:31:02.035Z,98230.88
2023-05-17T20:35:04.922Z,98240.63
2023-05-17T20:39:07.791Z,98255.00
2023-05-17T20:43:10.202Z,98253.41
2023-05-17T20:47:12.435Z,98258.00
2023-05-17T20:51:16.247Z,98262.34
2023-05-17T20:55:18.692Z,98266.91
2023-05-17T20:59:23.251Z,98261.25
2023-05-17T21:03:28.251Z,98269.00
2023-05-17T21:07:30.748Z,98258.72
2023-05-17T21:11:32.974Z,98257.00
2023-05-17T21:15:36.191Z,98262.84
2023-05-17T21:19:38.500Z,98264.81
2023-05-17T21:23:40.823Z,98270.47
2023-05-17T21:27:43.042Z,98265.91
2023-05-17T21:31:45.191Z,98279.13
2023-05-17T21:35:47.589Z,98290.81
2023-05-17T21:39:49.967Z,98289.63
2023-05-17T21:43:52.215Z,98288.84
2023-05-17T21:47:54.362Z,98296.59
2023-05-17T21:51:56.532Z,98295.91
2023-05-17T21:56:02.763Z,98293.78
2023-05-17T22:00:07.873Z,98305.88
2023-05-17T22:04:10.048Z,98295.47
2023-05-17T22:08:12.220Z,98304.69
2023-05-17T22:12:15.002Z,98307.06
2023-05-17T22:16:18.767Z,98304.75
2023-05-17T22:20:23.775Z,98302.56
2023-05-17T22:24:26.284Z,98309.75
2023-05-17T22:28:28.690Z,98307.56
2023-05-17T22:32:31.160Z,98303.59
2023-05-17T22:36:34.720Z,98302.22
2023-05-17T22:40:36.928Z,98298.88
2023-05-17T22:44:39.026Z,98309.78
2023-05-17T22:48:41.146Z,98303.34
2023-05-17T22:52:43.802Z,98308.19
2023-05-17T22:56:46.056Z,98309.69
2023-05-17T23:00:51.149Z,98309.94
2023-05-17T23:04:55.770Z,98305.38
2023-05-17T23:08:57.887Z,98297.84
2023-05-17T23:12:59.908Z,98293.41
2023-05-17T23:17:04.290Z,98290.69
2023-05-17T23:21:06.555Z,98279.72
2023-05-17T23:25:09.206Z,98286.56
2023-05-17T23:29:12.657Z,98284.75
2023-05-17T23:33:15.411Z,98292.50
2023-05-17T23:37:17.528Z,98281.72
2023-05-17T23:41:21.612Z,98282.06
2023-05-17T23:45:23.706Z,98282.72
2023-05-17T23:49:25.786Z,98276.81
2023-05-17T23:53:28.178Z,98268.84
2023-05-17T23:57:30.305Z,98272.28
